Time;durP1;ratioP1;P1;durP2;ratioP2;P2;SDS_P1;SDS_P2;PMS_P1;PMS_P2;Temp;Humidity;BMP_temperature;BMP_pressure;BME280_temperature;BME280_humidity;BME280_pressure;Samples;Min_cycle;Max_cycle;Signal;HPM_P1;HPM_P2
2021/03/25 00:01:20;;;;;;;44.97;13.77;;;;;;;-4.96;85.27;95864.09;5130563;28;20191;-61
2021/03/25 00:03:50;;;;;;;13.87;5.17;;;;;;;-4.94;85.80;95860.41;5131071;28;20844;-60
2021/03/25 00:06:17;;;;;;;10.67;5.30;;;;;;;-4.87;84.99;95868.03;5130572;28;20199;-61
2021/03/25 00:08:44;;;;;;;11.57;4.57;;;;;;;-4.90;84.88;95864.13;5133242;27;20197;-61
2021/03/25 00:11:12;;;;;;;6.23;2.87;;;;;;;-4.99;84.66;95861.94;5134758;27;20194;-61
2021/03/25 00:13:39;;;;;;;5.20;3.13;;;;;;;-4.97;84.30;95852.38;5134829;27;20196;-61
2021/03/25 00:16:07;;;;;;;6.37;3.30;;;;;;;-5.08;84.88;95858.00;5134314;27;20186;-63
2021/03/25 00:18:33;;;;;;;11.87;4.30;;;;;;;-5.18;85.55;95860.09;5134519;27;20205;-61
2021/03/25 00:21:00;;;;;;;8.80;3.53;;;;;;;-5.28;86.11;95866.25;5134300;27;20200;-61
2021/03/25 00:23:27;;;;;;;7.90;3.57;;;;;;;-5.34;87.02;95856.09;5134604;27;20318;-63
2021/03/25 00:25:54;;;;;;;6.93;3.10;;;;;;;-5.37;87.24;95857.22;5134403;27;20225;-59
2021/03/25 00:28:22;;;;;;;5.13;2.80;;;;;;;-5.38;86.69;95858.19;5134185;27;20230;-62
2021/03/25 00:30:49;;;;;;;4.97;2.67;;;;;;;-5.37;87.15;95852.16;5134274;27;20226;-61
2021/03/25 00:33:18;;;;;;;6.90;3.30;;;;;;;-5.37;87.49;95846.31;5134375;27;20191;-61
2021/03/25 00:35:47;;;;;;;15.57;4.93;;;;;;;-5.36;87.64;95858.00;5134171;27;20230;-61
2021/03/25 00:38:14;;;;;;;14.27;5.13;;;;;;;-5.30;88.24;95847.94;5134048;27;20237;-62
2021/03/25 00:40:41;;;;;;;5.40;3.47;;;;;;;-5.44;88.28;95860.69;5134255;27;20579;-60
2021/03/25 00:43:10;;;;;;;5.47;3.20;;;;;;;-5.33;89.01;95852.59;5133873;27;20335;-61
2021/03/25 00:45:40;;;;;;;5.30;3.00;;;;;;;-5.26;88.23;95859.25;5133955;27;20203;-60
2021/03/25 00:48:08;;;;;;;3.77;2.50;;;;;;;-5.31;88.70;95850.66;5133764;27;20661;-61
2021/03/25 00:50:38;;;;;;;3.80;2.60;;;;;;;-5.27;88.41;95851.84;5134088;27;20218;-62
2021/03/25 00:53:07;;;;;;;5.70;3.23;;;;;;;-5.35;88.68;95850.25;5133806;27;20201;-62
2021/03/25 00:55:34;;;;;;;12.60;5.17;;;;;;;-5.30;89.09;95855.53;5133693;27;20197;-62
2021/03/25 00:58:01;;;;;;;16.43;6.70;;;;;;;-5.19;89.19;95853.44;5133619;27;20227;-61
2021/03/25 01:00:31;;;;;;;28.17;10.00;;;;;;;-5.16;89.36;95848.00;5133570;27;20198;-61
2021/03/25 01:02:59;;;;;;;33.30;10.70;;;;;;;-5.16;89.38;95846.25;5133494;27;20661;-61
2021/03/25 01:05:27;;;;;;;41.97;16.27;;;;;;;-5.15;88.70;95839.44;5133745;27;20293;-61
2021/03/25 01:07:54;;;;;;;33.70;16.33;;;;;;;-5.12;89.03;95849.19;5133594;27;20222;-61
2021/03/25 01:10:25;;;;;;;25.30;13.40;;;;;;;-5.15;88.64;95847.03;5133402;27;20588;-59
2021/03/25 01:12:52;;;;;;;64.03;18.93;;;;;;;-5.27;88.21;95842.50;5133349;27;20187;-61
2021/03/25 01:15:19;;;;;;;56.67;17.63;;;;;;;-5.27;87.53;95846.78;5133599;27;20661;-60
2021/03/25 01:17:48;;;;;;;36.27;13.53;;;;;;;-5.25;87.26;95842.31;5133321;27;20261;-60
2021/03/25 01:20:20;;;;;;;26.50;11.57;;;;;;;-5.26;87.44;95833.94;5132775;27;20247;-61
2021/03/25 01:22:46;;;;;;;27.67;12.13;;;;;;;-5.24;86.60;95831.22;5133132;27;20194;-60
2021/03/25 01:25:15;;;;;;;27.60;11.80;;;;;;;-5.16;86.86;95833.59;5132963;27;20773;-60
2021/03/25 01:27:45;;;;;;;22.17;11.00;;;;;;;-5.11;85.72;95831.28;5133117;27;20200;-61
2021/03/25 01:30:13;;;;;;;25.73;11.10;;;;;;;-5.14;85.39;95826.59;5133211;27;20202;-60
2021/03/25 01:32:40;;;;;;;22.93;11.20;;;;;;;-5.12;86.02;95837.31;5132909;27;20202;-61
2021/03/25 01:35:09;;;;;;;23.53;11.23;;;;;;;-5.17;85.60;95829.50;5132818;27;20284;-61
2021/03/25 01:37:38;;;;;;;27.83;11.30;;;;;;;-5.15;86.29;95835.16;5132899;27;20226;-60
2021/03/25 01:40:10;;;;;;;23.50;10.60;;;;;;;-5.16;85.47;95828.53;5133201;27;20198;-61
2021/03/25 01:42:37;;;;;;;21.33;10.77;;;;;;;-5.15;85.01;95824.25;5132788;27;20247;-58
2021/03/25 01:45:42;;;;;;;26.33;11.07;;;;;;;-5.16;84.27;95830.28;5132997;27;20198;-62
2021/03/25 01:48:10;;;;;;;23.00;9.60;;;;;;;-4.90;83.13;95832.94;5133026;27;20195;-61
2021/03/25 01:50:36;;;;;;;16.60;8.30;;;;;;;-5.10;83.39;95835.38;5131762;27;20306;-61
2021/03/25 01:53:19;;;;;;;36.87;12.67;;;;;;;-5.12;83.71;95834.00;5132732;27;20206;-61
2021/03/25 01:55:48;;;;;;;27.77;9.40;;;;;;;-5.09;84.55;95839.50;5132471;27;20195;-61
2021/03/25 01:58:45;;;;;;;19.53;8.47;;;;;;;-4.99;85.19;95834.88;5132262;27;20712;-61
2021/03/25 02:01:21;;;;;;;23.97;8.10;;;;;;;-4.88;84.17;95839.38;5132630;27;20281;-61
2021/03/25 02:04:10;;;;;;;11.73;5.50;;;;;;;-4.91;85.03;95847.34;5132571;27;20197;-61
2021/03/25 02:06:44;;;;;;;10.83;4.97;;;;;;;-5.05;85.46;95839.88;5129441;27;20254;-60
2021/03/25 02:09:20;;;;;;;5.20;3.40;;;;;;;-5.08;85.16;95845.34;5132402;27;20692;-61
2021/03/25 02:12:00;;;;;;;6.87;3.77;;;;;;;-5.08;86.74;95847.88;5132676;27;20198;-61
2021/03/25 02:14:35;;;;;;;15.30;5.00;;;;;;;-5.10;87.05;95852.34;5132271;27;20660;-61
2021/03/25 02:17:07;;;;;;;9.97;3.90;;;;;;;-5.13;87.38;95862.84;5132048;27;20262;-61
2021/03/25 02:19:54;;;;;;;10.00;4.40;;;;;;;-5.25;87.26;95860.81;5132025;27;20206;-61
2021/03/25 02:22:51;;;;;;;8.80;3.90;;;;;;;-5.23;86.47;95863.19;5132144;27;20636;-60
2021/03/25 02:25:24;;;;;;;9.10;4.50;;;;;;;-5.25;86.62;95870.97;5131837;27;20214;-61
2021/03/25 02:27:58;;;;;;;9.93;4.60;;;;;;;-5.25;86.54;95873.50;5132120;27;20281;-62
2021/03/25 02:30:36;;;;;;;10.00;4.73;;;;;;;-5.16;86.66;95868.28;5131373;27;20193;-61
2021/03/25 02:33:06;;;;;;;10.77;5.07;;;;;;;-5.12;86.38;95875.31;5131859;27;20186;-61
2021/03/25 02:35:36;;;;;;;12.83;5.00;;;;;;;-5.13;86.94;95870.44;5131510;27;20229;-62
2021/03/25 02:38:07;;;;;;;10.77;5.40;;;;;;;-5.13;86.47;95871.19;5131882;27;20700;-61
2021/03/25 02:40:37;;;;;;;9.30;4.97;;;;;;;-5.10;86.64;95875.13;5131978;27;20195;-61
2021/03/25 02:43:08;;;;;;;8.87;5.40;;;;;;;-5.11;86.78;95887.00;5131766;27;20199;-62
2021/03/25 02:45:40;;;;;;;12.47;5.93;;;;;;;-4.98;86.87;95876.94;5131640;27;20187;-62
2021/03/25 02:48:12;;;;;;;9.37;4.77;;;;;;;-4.97;86.43;95887.84;5131705;27;20229;-61
2021/03/25 02:50:42;;;;;;;6.90;4.60;;;;;;;-4.88;87.26;95881.69;5131634;27;20665;-60
2021/03/25 02:53:14;;;;;;;9.27;4.50;;;;;;;-4.82;87.14;95891.06;5131694;27;20685;-62
2021/03/25 02:55:41;;;;;;;18.37;6.47;;;;;;;-4.72;86.19;95888.97;5131471;27;20653;-61
2021/03/25 02:58:14;;;;;;;15.93;6.93;;;;;;;-4.71;86.85;95879.59;5131272;27;20325;-60
2021/03/25 03:00:44;;;;;;;10.40;4.43;;;;;;;-4.69;86.77;95886.06;5131369;27;20191;-61
2021/03/25 03:03:17;;;;;;;7.97;3.80;;;;;;;-4.57;85.57;95894.69;5132115;27;20230;-62
2021/03/25 03:05:45;;;;;;;8.63;4.80;;;;;;;-4.68;85.51;95894.47;5131550;27;20661;-61
2021/03/25 03:08:16;;;;;;;6.90;4.23;;;;;;;-4.64;85.89;95896.44;5131256;27;20194;-61
2021/03/25 03:10:47;;;;;;;7.87;5.10;;;;;;;-4.72;85.51;95899.09;5131335;27;20198;-61
2021/03/25 03:13:17;;;;;;;10.73;4.53;;;;;;;-4.68;85.50;95900.28;5131106;27;20289;-61
2021/03/25 03:15:48;;;;;;;8.50;4.20;;;;;;;-4.80;85.67;95914.47;5131098;27;20254;-63
2021/03/25 03:18:22;;;;;;;7.57;4.50;;;;;;;-4.67;85.29;95906.94;5130936;27;20217;-62
2021/03/25 03:20:54;;;;;;;9.53;4.93;;;;;;;-4.74;85.39;95911.19;5131119;27;20201;-60
2021/03/25 03:23:23;;;;;;;12.73;5.33;;;;;;;-4.86;86.15;95915.22;5131229;27;20226;-60
2021/03/25 03:25:50;;;;;;;10.53;5.63;;;;;;;-4.87;87.05;95921.25;5131300;27;20210;-59
2021/03/25 03:28:20;;;;;;;14.83;6.93;;;;;;;-5.02;87.18;95920.56;5130876;27;20570;-62
2021/03/25 03:30:51;;;;;;;29.80;10.97;;;;;;;-4.93;86.19;95919.47;5131049;28;20205;-61
2021/03/25 03:33:24;;;;;;;22.20;9.60;;;;;;;-5.04;86.58;95914.91;5130812;28;20234;-60
2021/03/25 03:35:55;;;;;;;20.13;8.47;;;;;;;-5.00;86.92;95919.44;5130635;28;20286;-60
2021/03/25 03:38:26;;;;;;;12.10;5.97;;;;;;;-4.94;87.01;95920.44;5131185;28;20222;-61
2021/03/25 03:40:55;;;;;;;17.83;7.63;;;;;;;-4.91;86.31;95920.06;5131125;28;20200;-61
2021/03/25 03:43:23;;;;;;;20.40;8.20;;;;;;;-4.86;86.46;95928.66;5134579;27;20197;-60
2021/03/25 03:45:58;;;;;;;16.57;7.53;;;;;;;-4.90;85.75;95919.09;5134954;27;20193;-61
2021/03/25 03:48:35;;;;;;;14.03;5.77;;;;;;;-4.89;86.11;95930.81;5135653;27;20765;-61
2021/03/25 03:51:05;;;;;;;12.27;4.87;;;;;;;-4.94;87.47;95938.19;5135026;27;20272;-61
2021/03/25 03:53:33;;;;;;;21.63;6.73;;;;;;;-4.98;87.97;95934.47;5135905;27;20217;-60
2021/03/25 03:56:16;;;;;;;11.43;4.80;;;;;;;-5.01;87.80;95937.34;5134898;27;20190;-62
2021/03/25 03:58:49;;;;;;;8.47;4.70;;;;;;;-5.00;88.74;95938.91;5135025;27;20193;-63
2021/03/25 04:01:22;;;;;;;11.67;5.10;;;;;;;-4.99;88.99;95946.34;5135070;27;20190;-61
2021/03/25 04:03:57;;;;;;;11.23;4.77;;;;;;;-4.75;87.94;95950.19;5135034;27;20243;-62
2021/03/25 04:06:29;;;;;;;9.43;4.27;;;;;;;-4.78;86.88;95945.47;5134920;27;20190;-61
2021/03/25 04:09:01;;;;;;;8.23;4.80;;;;;;;-4.88;86.94;95950.88;5134716;27;20203;-61
2021/03/25 04:11:33;;;;;;;10.77;4.73;;;;;;;-4.90;86.05;95947.75;5134790;27;20194;-61
2021/03/25 04:14:03;;;;;;;7.80;4.53;;;;;;;-4.87;85.57;95944.84;5116441;27;20205;-61
2021/03/25 04:16:40;;;;;;;8.33;4.67;;;;;;;-4.90;86.13;95952.81;5134428;27;20575;-61
2021/03/25 04:19:13;;;;;;;9.83;5.27;;;;;;;-5.08;85.91;95955.03;5134871;27;20243;-61
2021/03/25 04:21:46;;;;;;;12.60;5.53;;;;;;;-5.05;85.51;95956.41;5134545;27;20214;-61
2021/03/25 04:24:19;;;;;;;9.63;4.80;;;;;;;-5.06;86.20;95954.84;5134391;27;20668;-62
2021/03/25 04:26:49;;;;;;;7.83;4.90;;;;;;;-5.11;84.95;95957.16;5134190;27;20746;-61
2021/03/25 04:29:21;;;;;;;7.77;4.47;;;;;;;-5.11;85.40;95954.63;5134311;27;20669;-62
2021/03/25 04:31:48;;;;;;;13.00;6.80;;;;;;;-5.10;84.94;95956.97;5134189;27;20203;-61
2021/03/25 04:34:16;;;;;;;18.83;9.40;;;;;;;-5.22;85.81;95955.91;5133912;27;20276;-62
2021/03/25 04:36:46;;;;;;;10.93;6.00;;;;;;;-5.23;85.39;95960.16;5133957;27;20286;-62
2021/03/25 04:39:16;;;;;;;12.07;6.57;;;;;;;-5.32;86.78;95961.28;5134215;27;20197;-61
2021/03/25 04:41:45;;;;;;;11.73;5.97;;;;;;;-5.05;85.75;95961.47;5134091;27;20581;-61
2021/03/25 04:44:27;;;;;;;13.57;7.97;;;;;;;-5.09;85.35;95972.97;5133563;27;20190;-61
2021/03/25 04:47:01;;;;;;;10.27;5.93;;;;;;;-4.94;85.31;95976.19;5133616;27;20274;-62
2021/03/25 04:49:36;;;;;;;9.17;4.93;;;;;;;-5.06;85.02;95980.97;5133564;27;20228;-63
2021/03/25 04:52:08;;;;;;;13.23;6.27;;;;;;;-5.14;85.69;95982.84;5133445;27;20204;-62
2021/03/25 04:54:36;;;;;;;11.77;5.53;;;;;;;-5.13;85.10;95994.56;5132812;27;20290;-61
2021/03/25 04:57:12;;;;;;;15.83;6.23;;;;;;;-5.09;86.18;95991.47;5133312;27;20230;-62
2021/03/25 04:59:40;;;;;;;11.27;5.93;;;;;;;-4.92;85.99;96002.09;5133770;27;20201;-61
2021/03/25 05:02:07;;;;;;;12.43;6.23;;;;;;;-4.79;84.86;95999.69;5133086;27;20244;-62
2021/03/25 05:04:37;;;;;;;14.33;6.77;;;;;;;-4.79;85.96;95997.16;5133130;27;20203;-61
2021/03/25 05:07:06;;;;;;;23.03;8.93;;;;;;;-4.68;85.32;96004.22;5133229;27;20197;-61
2021/03/25 05:09:36;;;;;;;12.93;6.20;;;;;;;-4.59;85.50;96008.19;5133338;27;20350;-61
2021/03/25 05:12:04;;;;;;;19.67;8.77;;;;;;;-4.42;85.76;96009.44;5133173;27;20233;-61
2021/03/25 05:14:31;;;;;;;20.77;10.50;;;;;;;-4.30;85.51;96019.84;5133172;27;20202;-63
2021/03/25 05:17:13;;;;;;;66.40;24.23;;;;;;;-4.25;85.24;96020.06;5132976;27;20225;-61
2021/03/25 05:19:53;;;;;;;100.50;35.57;;;;;;;-4.01;84.09;96019.59;5132702;27;20277;-61
2021/03/25 05:22:28;;;;;;;67.07;26.83;;;;;;;-3.89;84.06;96013.97;5132641;27;20197;-62
2021/03/25 05:25:02;;;;;;;58.60;22.40;;;;;;;-3.80;83.11;96020.44;5132680;27;20319;-62
2021/03/25 05:27:36;;;;;;;40.33;18.07;;;;;;;-3.52;82.67;96016.03;5133069;27;20218;-63
2021/03/25 05:30:08;;;;;;;32.93;15.87;;;;;;;-3.43;81.42;96024.25;5132524;27;20666;-62
2021/03/25 05:32:38;;;;;;;24.80;13.40;;;;;;;-3.47;80.26;96016.22;5132463;27;20202;-62
2021/03/25 05:35:09;;;;;;;29.53;12.83;;;;;;;-3.03;80.05;96015.69;5132295;27;20195;-62
2021/03/25 05:37:36;;;;;;;26.00;12.07;;;;;;;-2.35;76.44;96014.47;5132548;27;20230;-62
2021/03/25 05:40:10;;;;;;;24.63;11.93;;;;;;;-1.32;73.83;96012.63;5132480;27;20195;-62
2021/03/25 05:42:46;;;;;;;27.87;13.30;;;;;;;-0.35;68.45;96017.16;5132433;27;20672;-62
2021/03/25 05:45:25;;;;;;;35.23;15.93;;;;;;;0.16;66.13;96028.78;5132296;27;20319;-62
2021/03/25 05:48:32;;;;;;;33.87;15.27;;;;;;;0.35;64.12;96028.53;5132533;27;20197;-62
2021/03/25 05:51:11;;;;;;;35.10;16.13;;;;;;;0.46;65.33;96034.69;5132263;27;20194;-62
2021/03/25 05:53:48;;;;;;;35.60;15.97;;;;;;;-0.02;66.31;96032.13;5132084;27;20321;-62
2021/03/25 05:56:25;;;;;;;33.17;16.53;;;;;;;-0.05;67.12;96038.44;5132145;27;20198;-62
2021/03/25 05:58:56;;;;;;;27.20;14.27;;;;;;;-0.64;68.22;96038.22;5132080;27;20240;-61
2021/03/25 06:01:49;;;;;;;27.13;13.90;;;;;;;-1.07;70.63;96038.94;5132036;27;20554;-61
2021/03/25 06:04:19;;;;;;;21.13;10.07;;;;;;;-1.15;70.59;96031.56;5129260;27;20194;-62
2021/03/25 06:07:22;;;;;;;17.00;9.43;;;;;;;-1.21;70.06;96039.25;5130868;27;20285;-62
2021/03/25 06:10:01;;;;;;;19.77;10.67;;;;;;;-1.33;70.00;96034.78;5129572;27;20287;-62
2021/03/25 06:12:51;;;;;;;17.40;9.90;;;;;;;-1.46;70.98;96036.66;5131808;27;20668;-61
2021/03/25 06:15:30;;;;;;;29.13;15.10;;;;;;;-1.18;72.24;96042.16;5131949;27;20208;-61
2021/03/25 06:18:19;;;;;;;22.17;12.73;;;;;;;-1.11;71.09;96032.72;5131559;27;20230;-62
2021/03/25 06:21:02;;;;;;;40.50;18.67;;;;;;;-1.10;71.30;96044.47;5131564;27;20200;-60
2021/03/25 06:23:38;;;;;;;21.03;8.47;;;;;;;-0.93;70.36;96037.88;5132045;27;20194;-62
2021/03/25 06:26:23;;;;;;;95.43;25.60;;;;;;;-0.78;nan;96047.75;5131546;27;20378;-62
2021/03/25 06:28:53;;;;;;;83.00;22.60;;;;;;;-0.69;67.22;96045.72;5131567;27;20198;-62
2021/03/25 06:31:30;;;;;;;18.87;8.13;;;;;;;-0.59;66.96;96051.13;5131621;27;20193;-62
2021/03/25 06:34:05;;;;;;;112.47;24.73;;;;;;;-0.43;67.39;96045.50;5131389;27;20200;-62
2021/03/25 06:36:53;;;;;;;11.67;5.70;;;;;;;-0.50;69.65;96037.13;5131478;27;20251;-62
2021/03/25 06:39:43;;;;;;;8.17;4.63;;;;;;;-0.27;69.87;96034.75;5131497;27;20296;-62
2021/03/25 06:42:32;;;;;;;7.30;4.80;;;;;;;-0.07;68.72;96044.75;5131201;27;20194;-64
2021/03/25 06:45:03;;;;;;;10.33;5.37;;;;;;;0.03;69.45;96039.94;5131484;27;20194;-62
2021/03/25 06:47:50;;;;;;;11.10;5.33;;;;;;;0.16;71.49;96046.66;5131164;27;20198;-62
2021/03/25 06:50:20;;;;;;;10.90;6.23;;;;;;;0.04;69.50;96049.16;5131254;27;20204;-62
2021/03/25 06:52:47;;;;;;;13.93;6.97;;;;;;;0.14;70.75;96051.22;5131101;27;20191;-62
2021/03/25 06:55:19;;;;;;;14.63;7.13;;;;;;;0.00;69.61;96042.94;5131178;27;20225;-62
2021/03/25 06:57:51;;;;;;;11.47;6.80;;;;;;;0.02;70.58;96046.03;5131191;27;20276;-62
2021/03/25 07:00:21;;;;;;;12.37;6.27;;;;;;;0.24;69.25;96042.06;5130963;27;20198;-63
2021/03/25 07:02:48;;;;;;;20.40;7.20;;;;;;;0.42;68.69;96048.91;5130911;27;20194;-62
2021/03/25 07:05:22;;;;;;;15.67;8.17;;;;;;;0.32;70.36;96043.53;5131097;27;20226;-62
2021/03/25 07:07:57;;;;;;;15.90;8.10;;;;;;;0.63;69.25;96043.34;5131138;27;20199;-62
2021/03/25 07:10:25;;;;;;;16.27;8.23;;;;;;;0.48;71.04;96039.59;5131065;27;20678;-63
2021/03/25 07:13:01;;;;;;;13.83;8.13;;;;;;;0.56;71.47;96040.06;5131104;27;20190;-63
2021/03/25 07:15:29;;;;;;;16.10;8.27;;;;;;;0.68;69.91;96040.91;5131137;27;20198;-63
2021/03/25 07:17:56;;;;;;;10.67;5.50;;;;;;;0.52;65.97;96046.63;5130133;27;20225;-62
2021/03/25 07:20:27;;;;;;;10.33;5.97;;;;;;;0.69;64.94;96050.16;5130595;27;20610;-62
2021/03/25 07:23:04;;;;;;;14.70;6.30;;;;;;;0.78;67.10;96048.84;5130717;27;20202;-62
2021/03/25 07:25:35;;;;;;;13.00;7.33;;;;;;;0.90;66.58;96048.09;5130828;27;20218;-63
2021/03/25 07:28:03;;;;;;;14.00;7.40;;;;;;;1.09;68.94;96049.59;5130901;27;20255;-64
2021/03/25 07:30:43;;;;;;;17.07;7.73;;;;;;;1.50;67.76;96046.16;5130730;27;20558;-62
2021/03/25 07:33:13;;;;;;;22.67;10.40;;;;;;;1.76;67.19;96055.97;5130664;28;20198;-62
2021/03/25 07:35:43;;;;;;;30.20;14.30;;;;;;;2.25;69.52;96049.53;5130288;28;20232;-62
2021/03/25 07:38:21;;;;;;;20.47;11.27;;;;;;;2.39;64.97;96050.84;5130361;28;20709;-62
2021/03/25 07:41:04;;;;;;;28.27;13.10;;;;;;;1.93;65.60;96040.69;5130801;28;20227;-61
2021/03/25 07:43:48;;;;;;;42.17;16.50;;;;;;;2.03;66.73;96040.91;5130644;28;20636;-62
2021/03/25 07:46:21;;;;;;;26.73;13.53;;;;;;;2.10;67.71;96042.34;5130511;28;20206;-63
2021/03/25 07:49:00;;;;;;;22.03;13.07;;;;;;;2.28;67.31;96043.97;5130541;28;20198;-63
2021/03/25 07:51:28;;;;;;;27.70;11.23;;;;;;;2.41;64.69;96050.63;5130959;28;20582;-62
2021/03/25 07:54:12;;;;;;;22.87;10.50;;;;;;;2.07;64.16;96050.47;5130535;28;20201;-62
2021/03/25 07:56:57;;;;;;;22.43;11.80;;;;;;;2.23;65.80;96043.88;5130184;28;20237;-64
2021/03/25 07:59:33;;;;;;;59.00;22.97;;;;;;;2.69;66.82;96039.59;5130665;28;20218;-61
2021/03/25 08:02:00;;;;;;;22.40;13.40;;;;;;;2.97;64.34;96042.91;5130506;28;20201;-62
2021/03/25 08:04:29;;;;;;;23.13;13.33;;;;;;;2.97;64.23;96044.72;5130239;28;20208;-62
2021/03/25 08:07:04;;;;;;;21.67;11.43;;;;;;;3.41;63.69;96038.75;5130163;28;20194;-63
2021/03/25 08:09:46;;;;;;;25.93;11.30;;;;;;;3.00;62.43;96042.44;5130218;28;20627;-62
2021/03/25 08:12:25;;;;;;;25.13;11.10;;;;;;;3.05;62.47;96041.75;5130422;28;20194;-61
2021/03/25 08:15:20;;;;;;;19.53;9.73;;;;;;;3.00;63.31;96045.00;5130527;28;20193;-62
2021/03/25 08:17:58;;;;;;;14.07;9.03;;;;;;;3.10;63.05;96034.13;5130060;28;20260;-61
2021/03/25 08:20:30;;;;;;;19.37;10.77;;;;;;;3.02;65.34;96037.09;5130173;28;20251;-61
2021/03/25 08:23:06;;;;;;;19.87;9.90;;;;;;;3.12;63.74;96039.81;5129967;28;20202;-61
2021/03/25 08:25:44;;;;;;;11.77;8.20;;;;;;;3.51;63.34;96037.31;5129902;28;20708;-61
2021/03/25 08:28:25;;;;;;;17.33;9.47;;;;;;;3.98;62.46;96033.38;5130385;27;20728;-61
2021/03/25 08:31:06;;;;;;;14.27;8.20;;;;;;;3.72;61.36;96034.03;5134105;27;20617;-60
2021/03/25 08:33:49;;;;;;;15.57;8.50;;;;;;;3.90;62.22;96026.06;5133955;27;20225;-62
2021/03/25 08:36:22;;;;;;;14.03;8.80;;;;;;;4.03;64.47;96018.00;5133579;27;20317;-61
2021/03/25 08:39:16;;;;;;;15.57;9.40;;;;;;;3.92;65.90;96013.75;5133807;27;20222;-61
2021/03/25 08:41:52;;;;;;;13.70;8.63;;;;;;;3.83;64.59;96017.75;5123271;27;20300;-60
2021/03/25 08:44:31;;;;;;;14.60;8.90;;;;;;;4.01;62.68;96014.88;5133672;27;20714;-60
2021/03/25 08:47:05;;;;;;;13.40;7.17;;;;;;;4.13;63.75;96015.56;5133598;27;20194;-61
2021/03/25 08:49:36;;;;;;;10.43;6.00;;;;;;;4.35;62.42;96018.09;5133493;27;20208;-62
2021/03/25 08:52:07;;;;;;;17.52;8.00;;;;;;;4.70;60.05;96009.97;5133234;27;20433;-61
2021/03/25 08:54:39;;;;;;;10.47;6.20;;;;;;;4.58;59.17;96017.06;5133976;27;20210;-61
2021/03/25 08:57:15;;;;;;;11.30;5.23;;;;;;;4.61;58.31;96012.22;5133286;27;20203;-61
2021/03/25 08:59:48;;;;;;;7.63;4.90;;;;;;;4.74;57.87;96013.63;5133340;27;20237;-60
2021/03/25 09:02:23;;;;;;;8.93;5.30;;;;;;;4.83;56.23;96019.91;5133538;27;20221;-61
2021/03/25 09:04:53;;;;;;;7.50;4.63;;;;;;;4.95;56.14;96012.78;5133309;27;20194;-61
2021/03/25 09:07:21;;;;;;;9.13;4.80;;;;;;;5.11;59.04;96006.75;5133204;27;20277;-61
2021/03/25 09:09:51;;;;;;;6.83;4.57;;;;;;;5.14;56.15;96018.34;5133474;27;20274;-59
2021/03/25 09:12:22;;;;;;;11.90;4.70;;;;;;;5.25;53.99;96016.63;5133778;27;20202;-61
2021/03/25 09:14:50;;;;;;;5.97;4.37;;;;;;;5.42;55.94;96023.22;5133144;27;20215;-60
2021/03/25 09:17:20;;;;;;;7.80;4.43;;;;;;;5.81;56.79;96022.94;5132949;27;20677;-61
2021/03/25 09:19:50;;;;;;;9.53;4.50;;;;;;;6.11;55.95;96025.69;5132844;27;20233;-61
2021/03/25 09:22:45;;;;;;;5.80;4.00;;;;;;;5.82;54.39;96022.69;5133488;27;20198;-62
2021/03/25 09:25:37;;;;;;;7.93;5.00;;;;;;;6.05;55.24;96024.13;5133302;27;20573;-61
2021/03/25 09:28:09;;;;;;;6.33;4.37;;;;;;;5.91;52.09;96025.59;5132916;27;20305;-60
2021/03/25 09:30:40;;;;;;;7.07;4.57;;;;;;;5.76;52.98;96028.06;5132994;27;20254;-61
2021/03/25 09:33:37;;;;;;;5.83;4.20;;;;;;;5.93;54.98;96029.47;5133026;27;20324;-61
2021/03/25 09:36:42;;;;;;;11.27;5.10;;;;;;;6.01;54.10;96031.59;5125122;27;20234;-61
2021/03/25 09:39:23;;;;;;;7.37;4.77;;;;;;;5.91;52.52;96031.53;5132614;27;20224;-61
2021/03/25 09:41:50;;;;;;;15.53;4.90;;;;;;;5.86;52.31;96041.78;5132738;27;20190;-61
2021/03/25 09:44:26;;;;;;;6.77;4.03;;;;;;;5.76;51.30;96038.38;5132403;27;20659;-61
2021/03/25 09:47:17;;;;;;;8.40;3.67;;;;;;;5.56;51.95;96039.03;5132727;27;20211;-62
2021/03/25 09:49:45;;;;;;;6.20;3.67;;;;;;;5.53;53.92;96034.34;5133074;27;20209;-61
2021/03/25 09:52:33;;;;;;;5.83;3.70;;;;;;;5.58;52.60;96034.38;5132424;27;20293;-61
2021/03/25 09:55:27;;;;;;;5.93;3.60;;;;;;;5.52;50.72;96033.59;5132438;27;20197;-61
2021/03/25 09:57:56;;;;;;;6.13;3.87;;;;;;;5.79;50.32;96036.06;5132164;27;20412;-60
2021/03/25 10:00:58;;;;;;;4.93;3.50;;;;;;;5.66;50.03;96033.94;5132119;27;20191;-61
2021/03/25 10:04:01;;;;;;;7.60;2.93;;;;;;;5.52;50.68;96033.59;5132195;27;20228;-62
2021/03/25 10:06:50;;;;;;;8.43;4.10;;;;;;;5.72;51.26;96037.31;5132309;27;20240;-61
2021/03/25 10:09:34;;;;;;;6.17;3.80;;;;;;;5.73;51.60;96034.47;5132038;27;20653;-60
2021/03/25 10:12:01;;;;;;;5.17;3.30;;;;;;;5.59;48.98;96041.88;5131214;27;20217;-61
2021/03/25 10:14:51;;;;;;;7.60;4.43;;;;;;;5.81;51.31;96028.88;5132103;27;20233;-59
2021/03/25 10:17:44;;;;;;;6.53;4.00;;;;;;;5.44;49.76;96035.84;5132091;27;20245;-61
2021/03/25 10:20:44;;;;;;;8.27;4.47;;;;;;;5.71;52.63;96028.81;5131218;27;20233;-59
2021/03/25 10:23:16;;;;;;;19.27;7.07;;;;;;;6.38;51.53;96025.53;5123984;27;20618;-61
2021/03/25 10:25:43;;;;;;;17.70;7.60;;;;;;;6.53;49.35;96028.16;5131742;27;20250;-61
2021/03/25 10:28:17;;;;;;;12.43;5.90;;;;;;;6.56;49.66;96030.25;5130822;27;20197;-61
2021/03/25 10:30:44;;;;;;;8.00;4.77;;;;;;;6.68;48.65;96020.47;5131820;27;20198;-61
2021/03/25 10:33:15;;;;;;;5.80;4.00;;;;;;;6.55;50.35;96028.69;5113653;27;20736;-61
2021/03/25 10:35:55;;;;;;;12.67;5.30;;;;;;;7.19;49.64;96023.09;5131184;27;20232;-62
2021/03/25 10:38:30;;;;;;;10.87;4.57;;;;;;;7.30;47.46;96022.84;5131569;27;20224;-61
2021/03/25 10:41:00;;;;;;;11.20;4.80;;;;;;;7.13;48.04;96021.56;5131386;27;20194;-61
2021/03/25 10:43:32;;;;;;;8.53;4.97;;;;;;;6.90;48.25;96018.44;5131561;27;20198;-60
2021/03/25 10:46:01;;;;;;;9.07;5.03;;;;;;;7.10;49.65;96016.91;5131808;27;20214;-61
2021/03/25 10:48:33;;;;;;;9.47;4.47;;;;;;;7.26;48.99;96016.66;5130586;27;20254;-61
2021/03/25 10:51:05;;;;;;;12.00;5.20;;;;;;;7.38;49.60;96008.63;5130898;27;20190;-61
2021/03/25 10:53:36;;;;;;;5.27;3.77;;;;;;;7.00;48.67;96016.91;5131134;27;20591;-61
2021/03/25 10:56:15;;;;;;;8.93;4.13;;;;;;;7.28;48.00;96004.25;5131537;27;20270;-61
2021/03/25 10:58:44;;;;;;;12.10;6.50;;;;;;;7.26;48.69;96005.53;5131021;27;20226;-61
2021/03/25 11:01:23;;;;;;;9.53;4.80;;;;;;;7.06;46.66;96014.06;5131154;27;20216;-61
2021/03/25 11:03:50;;;;;;;5.43;3.60;;;;;;;6.90;46.27;96002.94;5128090;27;20189;-60
2021/03/25 11:06:26;;;;;;;6.23;3.87;;;;;;;6.99;47.12;96010.94;5130988;27;20639;-61
2021/03/25 11:09:05;;;;;;;6.47;3.83;;;;;;;7.01;46.90;96006.31;5131033;27;20190;-62
2021/03/25 11:11:36;;;;;;;9.40;3.90;;;;;;;6.92;47.49;96013.03;5131079;27;20686;-61
2021/03/25 11:14:05;;;;;;;9.70;5.27;;;;;;;7.12;46.91;96001.94;5131010;27;20664;-61
2021/03/25 11:16:32;;;;;;;8.03;3.70;;;;;;;7.40;47.20;96006.56;5130813;27;20234;-61
2021/03/25 11:19:05;;;;;;;10.53;4.80;;;;;;;7.52;47.12;95994.13;5130676;27;20258;-62
2021/03/25 11:21:34;;;;;;;9.67;4.10;;;;;;;7.90;45.75;95995.34;5130919;27;20617;-61
2021/03/25 11:24:07;;;;;;;5.27;2.70;;;;;;;8.12;41.67;95987.25;5131029;27;20199;-62
2021/03/25 11:26:35;;;;;;;3.23;2.50;;;;;;;7.53;42.28;95993.09;5130653;27;20234;-61
2021/03/25 11:29:04;;;;;;;4.10;2.97;;;;;;;7.79;42.09;95980.88;5130760;27;20206;-61
2021/03/25 11:31:33;;;;;;;4.57;3.13;;;;;;;8.28;42.62;95988.72;5130580;27;20575;-62
2021/03/25 11:34:00;;;;;;;20.17;7.13;;;;;;;8.47;42.88;95988.91;5130863;28;20233;-61
2021/03/25 11:36:38;;;;;;;12.23;5.20;;;;;;;7.90;38.93;95994.56;5130816;28;20313;-60
2021/03/25 11:39:16;;;;;;;6.40;3.27;;;;;;;7.52;39.98;95978.59;5130585;28;20225;-61
2021/03/25 11:41:44;;;;;;;6.37;3.40;;;;;;;7.68;41.66;95981.94;5130761;28;20204;-60
2021/03/25 11:44:11;;;;;;;4.37;3.27;;;;;;;7.62;40.09;95973.41;5130706;28;20202;-61
2021/03/25 11:46:40;;;;;;;4.73;3.03;;;;;;;7.58;40.85;95974.97;5130433;28;20186;-61
2021/03/25 11:49:11;;;;;;;5.30;3.47;;;;;;;7.66;40.60;95984.81;5130481;28;20212;-61
2021/03/25 11:51:41;;;;;;;7.03;3.90;;;;;;;7.53;40.19;95985.34;5130566;28;20259;-61
2021/03/25 11:54:22;;;;;;;3.30;2.70;;;;;;;7.35;42.39;95989.25;5130674;28;20277;-61
2021/03/25 11:56:51;;;;;;;8.87;4.40;;;;;;;7.84;43.40;95986.06;5130458;28;20201;-61
2021/03/25 11:59:28;;;;;;;18.63;8.70;;;;;;;7.85;42.78;95984.25;5130429;28;20753;-61
2021/03/25 12:02:29;;;;;;;13.47;5.40;;;;;;;8.03;42.89;95988.81;5130408;28;20201;-61